<?xml version="1.0" encoding="UTF-8" standalone="no" ?>
<gpx xmlns="http://www.topografix.com/GPX/1/1" xmlns:xsi="http://www.w3.org/2001/XMLSchema-instance" xsi:schemaLocation="http://www.topografix.com/GPX/1/1 http://www.topografix.com/GPX/1/1/gpx.xsd" version="1.1" creator="VisuGPX - https://www.visugpx.com">
  <metadata>
    <name>Course à pied en soirée</name>
  </metadata>
  <trk>
    <name><![CDATA[Course à pied en soirée_1]]></name>
    <trkseg>
      <trkpt lat="46.08669" lon="6.67844">
        <ele>668.2</ele>
        <time>2023-08-15T16:35:17Z</time>
      </trkpt>
      <trkpt lat="46.0868" lon="6.67868">
        <ele>670.4</ele>
        <time>2023-08-15T16:35:31Z</time>
      </trkpt>
      <trkpt lat="46.08699" lon="6.67867">
        <ele>670.6</ele>
        <time>2023-08-15T16:35:42Z</time>
      </trkpt>
      <trkpt lat="46.08719" lon="6.6787">
        <ele>670.9</ele>
        <time>2023-08-15T16:35:51Z</time>
      </trkpt>
      <trkpt lat="46.08736" lon="6.67869">
        <ele>671.1</ele>
        <time>2023-08-15T16:36:00Z</time>
      </trkpt>
      <trkpt lat="46.08743" lon="6.67843">
        <ele>669.3</ele>
        <time>2023-08-15T16:36:06Z</time>
      </trkpt>
      <trkpt lat="46.08746" lon="6.67815">
        <ele>668.8</ele>
        <time>2023-08-15T16:36:13Z</time>
      </trkpt>
      <trkpt lat="46.08748" lon="6.67788">
        <ele>668.5</ele>
        <time>2023-08-15T16:36:20Z</time>
      </trkpt>
      <trkpt lat="46.0875" lon="6.67762">
        <ele>668.2</ele>
        <time>2023-08-15T16:36:26Z</time>
      </trkpt>
      <trkpt lat="46.08751" lon="6.67733">
        <ele>667.9</ele>
        <time>2023-08-15T16:36:33Z</time>
      </trkpt>
      <trkpt lat="46.08753" lon="6.67704">
        <ele>667.8</ele>
        <time>2023-08-15T16:36:40Z</time>
      </trkpt>
      <trkpt lat="46.08754" lon="6.67677">
        <ele>667.7</ele>
        <time>2023-08-15T16:36:46Z</time>
      </trkpt>
      <trkpt lat="46.08755" lon="6.67648">
        <ele>667.5</ele>
        <time>2023-08-15T16:36:52Z</time>
      </trkpt>
      <trkpt lat="46.08756" lon="6.67622">
        <ele>667.3</ele>
        <time>2023-08-15T16:36:58Z</time>
      </trkpt>
      <trkpt lat="46.08757" lon="6.67595">
        <ele>667.2</ele>
        <time>2023-08-15T16:37:04Z</time>
      </trkpt>
      <trkpt lat="46.08759" lon="6.67568">
        <ele>667</ele>
        <time>2023-08-15T16:37:10Z</time>
      </trkpt>
      <trkpt lat="46.08762" lon="6.6754">
        <ele>666.8</ele>
        <time>2023-08-15T16:37:17Z</time>
      </trkpt>
      <trkpt lat="46.08764" lon="6.67512">
        <ele>666.6</ele>
        <time>2023-08-15T16:37:24Z</time>
      </trkpt>
      <trkpt lat="46.08767" lon="6.67484">
        <ele>666.5</ele>
        <time>2023-08-15T16:37:32Z</time>
      </trkpt>
      <trkpt lat="46.08774" lon="6.67456">
        <ele>666.2</ele>
        <time>2023-08-15T16:37:40Z</time>
      </trkpt>
      <trkpt lat="46.08781" lon="6.67429">
        <ele>665.9</ele>
        <time>2023-08-15T16:37:47Z</time>
      </trkpt>
      <trkpt lat="46.08783" lon="6.67401">
        <ele>665.7</ele>
        <time>2023-08-15T16:37:54Z</time>
      </trkpt>
      <trkpt lat="46.08785" lon="6.67372">
        <ele>665.5</ele>
        <time>2023-08-15T16:38:02Z</time>
      </trkpt>
      <trkpt lat="46.08785" lon="6.67368">
        <ele>665.4</ele>
        <time>2023-08-15T16:38:03Z</time>
      </trkpt>
      <trkpt lat="46.0878" lon="6.67363">
        <ele>665.4</ele>
        <time>2023-08-15T16:38:31Z</time>
      </trkpt>
      <trkpt lat="46.08781" lon="6.67362">
        <ele>665.3</ele>
        <time>2023-08-15T16:38:32Z</time>
      </trkpt>
      <trkpt lat="46.08787" lon="6.67337">
        <ele>665.2</ele>
        <time>2023-08-15T16:38:39Z</time>
      </trkpt>
      <trkpt lat="46.08789" lon="6.67308">
        <ele>665</ele>
        <time>2023-08-15T16:38:45Z</time>
      </trkpt>
      <trkpt lat="46.0879" lon="6.67278">
        <ele>664.7</ele>
        <time>2023-08-15T16:38:51Z</time>
      </trkpt>
      <trkpt lat="46.08791" lon="6.67252">
        <ele>664.3</ele>
        <time>2023-08-15T16:38:58Z</time>
      </trkpt>
      <trkpt lat="46.08793" lon="6.67225">
        <ele>664.1</ele>
        <time>2023-08-15T16:39:05Z</time>
      </trkpt>
      <trkpt lat="46.08796" lon="6.67199">
        <ele>664</ele>
        <time>2023-08-15T16:39:12Z</time>
      </trkpt>
      <trkpt lat="46.08799" lon="6.67174">
        <ele>664.2</ele>
        <time>2023-08-15T16:39:19Z</time>
      </trkpt>
      <trkpt lat="46.08803" lon="6.67145">
        <ele>664.3</ele>
        <time>2023-08-15T16:39:26Z</time>
      </trkpt>
      <trkpt lat="46.08804" lon="6.67116">
        <ele>664.3</ele>
        <time>2023-08-15T16:39:33Z</time>
      </trkpt>
      <trkpt lat="46.08812" lon="6.67092">
        <ele>664.3</ele>
        <time>2023-08-15T16:39:40Z</time>
      </trkpt>
      <trkpt lat="46.08812" lon="6.67063">
        <ele>664.1</ele>
        <time>2023-08-15T16:39:47Z</time>
      </trkpt>
      <trkpt lat="46.08814" lon="6.67038">
        <ele>663.9</ele>
        <time>2023-08-15T16:39:53Z</time>
      </trkpt>
      <trkpt lat="46.08814" lon="6.6701">
        <ele>663.7</ele>
        <time>2023-08-15T16:40:00Z</time>
      </trkpt>
      <trkpt lat="46.08814" lon="6.66982">
        <ele>663.4</ele>
        <time>2023-08-15T16:40:07Z</time>
      </trkpt>
      <trkpt lat="46.08813" lon="6.66954">
        <ele>663.1</ele>
        <time>2023-08-15T16:40:15Z</time>
      </trkpt>
      <trkpt lat="46.08814" lon="6.66947">
        <ele>662.5</ele>
        <time>2023-08-15T16:40:17Z</time>
      </trkpt>
      <trkpt lat="46.08827" lon="6.66926">
        <ele>661.5</ele>
        <time>2023-08-15T16:40:24Z</time>
      </trkpt>
      <trkpt lat="46.08828" lon="6.66898">
        <ele>661.3</ele>
        <time>2023-08-15T16:40:32Z</time>
      </trkpt>
      <trkpt lat="46.08826" lon="6.66869">
        <ele>661.5</ele>
        <time>2023-08-15T16:40:39Z</time>
      </trkpt>
      <trkpt lat="46.0883" lon="6.66858">
        <ele>661.4</ele>
        <time>2023-08-15T16:40:42Z</time>
      </trkpt>
      <trkpt lat="46.08837" lon="6.66834">
        <ele>661.1</ele>
        <time>2023-08-15T16:40:49Z</time>
      </trkpt>
      <trkpt lat="46.08843" lon="6.66808">
        <ele>661.2</ele>
        <time>2023-08-15T16:40:56Z</time>
      </trkpt>
      <trkpt lat="46.08854" lon="6.66787">
        <ele>661.4</ele>
        <time>2023-08-15T16:41:02Z</time>
      </trkpt>
      <trkpt lat="46.08858" lon="6.66773">
        <ele>661.7</ele>
        <time>2023-08-15T16:41:06Z</time>
      </trkpt>
      <trkpt lat="46.08853" lon="6.66752">
        <ele>662.1</ele>
        <time>2023-08-15T16:41:12Z</time>
      </trkpt>
      <trkpt lat="46.08862" lon="6.66727">
        <ele>661.9</ele>
        <time>2023-08-15T16:41:19Z</time>
      </trkpt>
      <trkpt lat="46.08862" lon="6.66724">
        <ele>661.8</ele>
        <time>2023-08-15T16:41:20Z</time>
      </trkpt>
      <trkpt lat="46.08864" lon="6.66717">
        <ele>661.7</ele>
        <time>2023-08-15T16:41:22Z</time>
      </trkpt>
      <trkpt lat="46.08881" lon="6.667">
        <ele>661.2</ele>
        <time>2023-08-15T16:41:29Z</time>
      </trkpt>
      <trkpt lat="46.08894" lon="6.66682">
        <ele>660.8</ele>
        <time>2023-08-15T16:41:35Z</time>
      </trkpt>
      <trkpt lat="46.08909" lon="6.66667">
        <ele>660.6</ele>
        <time>2023-08-15T16:41:44Z</time>
      </trkpt>
      <trkpt lat="46.0891" lon="6.6666">
        <ele>660.6</ele>
        <time>2023-08-15T16:41:49Z</time>
      </trkpt>
      <trkpt lat="46.08894" lon="6.66679">
        <ele>660.8</ele>
        <time>2023-08-15T16:41:58Z</time>
      </trkpt>
      <trkpt lat="46.08879" lon="6.66693">
        <ele>661.2</ele>
        <time>2023-08-15T16:42:04Z</time>
      </trkpt>
      <trkpt lat="46.08864" lon="6.6671">
        <ele>661.6</ele>
        <time>2023-08-15T16:42:10Z</time>
      </trkpt>
      <trkpt lat="46.0885" lon="6.66726">
        <ele>662.3</ele>
        <time>2023-08-15T16:42:17Z</time>
      </trkpt>
      <trkpt lat="46.08847" lon="6.66726">
        <ele>662.3</ele>
        <time>2023-08-15T16:42:18Z</time>
      </trkpt>
      <trkpt lat="46.08832" lon="6.66709">
        <ele>662.5</ele>
        <time>2023-08-15T16:42:25Z</time>
      </trkpt>
      <trkpt lat="46.08822" lon="6.66685">
        <ele>662.8</ele>
        <time>2023-08-15T16:42:33Z</time>
      </trkpt>
      <trkpt lat="46.08835" lon="6.66664">
        <ele>662.4</ele>
        <time>2023-08-15T16:42:39Z</time>
      </trkpt>
      <trkpt lat="46.08853" lon="6.66649">
        <ele>662</ele>
        <time>2023-08-15T16:42:45Z</time>
      </trkpt>
      <trkpt lat="46.08871" lon="6.66634">
        <ele>661.7</ele>
        <time>2023-08-15T16:42:52Z</time>
      </trkpt>
      <trkpt lat="46.08888" lon="6.66623">
        <ele>661.5</ele>
        <time>2023-08-15T16:42:58Z</time>
      </trkpt>
      <trkpt lat="46.08906" lon="6.66611">
        <ele>661.4</ele>
        <time>2023-08-15T16:43:05Z</time>
      </trkpt>
      <trkpt lat="46.08925" lon="6.66603">
        <ele>661.3</ele>
        <time>2023-08-15T16:43:11Z</time>
      </trkpt>
      <trkpt lat="46.08942" lon="6.66588">
        <ele>661.2</ele>
        <time>2023-08-15T16:43:18Z</time>
      </trkpt>
      <trkpt lat="46.08958" lon="6.6657">
        <ele>661</ele>
        <time>2023-08-15T16:43:25Z</time>
      </trkpt>
      <trkpt lat="46.08974" lon="6.66557">
        <ele>660.8</ele>
        <time>2023-08-15T16:43:32Z</time>
      </trkpt>
      <trkpt lat="46.0899" lon="6.6654">
        <ele>660.7</ele>
        <time>2023-08-15T16:43:38Z</time>
      </trkpt>
      <trkpt lat="46.09007" lon="6.66526">
        <ele>660.5</ele>
        <time>2023-08-15T16:43:44Z</time>
      </trkpt>
      <trkpt lat="46.09023" lon="6.66508">
        <ele>660.5</ele>
        <time>2023-08-15T16:43:51Z</time>
      </trkpt>
      <trkpt lat="46.09035" lon="6.6649">
        <ele>660.4</ele>
        <time>2023-08-15T16:43:57Z</time>
      </trkpt>
      <trkpt lat="46.09047" lon="6.66469">
        <ele>660.3</ele>
        <time>2023-08-15T16:44:04Z</time>
      </trkpt>
      <trkpt lat="46.09052" lon="6.66442">
        <ele>660.1</ele>
        <time>2023-08-15T16:44:11Z</time>
      </trkpt>
      <trkpt lat="46.09068" lon="6.66428">
        <ele>659.8</ele>
        <time>2023-08-15T16:44:17Z</time>
      </trkpt>
      <trkpt lat="46.09088" lon="6.6643">
        <ele>659.7</ele>
        <time>2023-08-15T16:44:23Z</time>
      </trkpt>
      <trkpt lat="46.09108" lon="6.66433">
        <ele>659.8</ele>
        <time>2023-08-15T16:44:30Z</time>
      </trkpt>
      <trkpt lat="46.09127" lon="6.66424">
        <ele>659.8</ele>
        <time>2023-08-15T16:44:37Z</time>
      </trkpt>
      <trkpt lat="46.09144" lon="6.66408">
        <ele>659.7</ele>
        <time>2023-08-15T16:44:44Z</time>
      </trkpt>
      <trkpt lat="46.09159" lon="6.66391">
        <ele>659.6</ele>
        <time>2023-08-15T16:44:50Z</time>
      </trkpt>
      <trkpt lat="46.09174" lon="6.66377">
        <ele>659.6</ele>
        <time>2023-08-15T16:44:56Z</time>
      </trkpt>
      <trkpt lat="46.09191" lon="6.66361">
        <ele>659.6</ele>
        <time>2023-08-15T16:45:03Z</time>
      </trkpt>
      <trkpt lat="46.09208" lon="6.66345">
        <ele>659.3</ele>
        <time>2023-08-15T16:45:10Z</time>
      </trkpt>
      <trkpt lat="46.09222" lon="6.66329">
        <ele>658.8</ele>
        <time>2023-08-15T16:45:16Z</time>
      </trkpt>
      <trkpt lat="46.09237" lon="6.6631">
        <ele>658.4</ele>
        <time>2023-08-15T16:45:22Z</time>
      </trkpt>
      <trkpt lat="46.09253" lon="6.66292">
        <ele>658.3</ele>
        <time>2023-08-15T16:45:29Z</time>
      </trkpt>
      <trkpt lat="46.09267" lon="6.66277">
        <ele>658.2</ele>
        <time>2023-08-15T16:45:36Z</time>
      </trkpt>
      <trkpt lat="46.09282" lon="6.66257">
        <ele>657.7</ele>
        <time>2023-08-15T16:45:44Z</time>
      </trkpt>
      <trkpt lat="46.09296" lon="6.66233">
        <ele>657.1</ele>
        <time>2023-08-15T16:45:51Z</time>
      </trkpt>
      <trkpt lat="46.0931" lon="6.66212">
        <ele>656.8</ele>
        <time>2023-08-15T16:45:57Z</time>
      </trkpt>
      <trkpt lat="46.09322" lon="6.6619">
        <ele>656.6</ele>
        <time>2023-08-15T16:46:04Z</time>
      </trkpt>
      <trkpt lat="46.09327" lon="6.66164">
        <ele>656.4</ele>
        <time>2023-08-15T16:46:10Z</time>
      </trkpt>
      <trkpt lat="46.09334" lon="6.66136">
        <ele>656.3</ele>
        <time>2023-08-15T16:46:16Z</time>
      </trkpt>
      <trkpt lat="46.09348" lon="6.66116">
        <ele>656.4</ele>
        <time>2023-08-15T16:46:22Z</time>
      </trkpt>
      <trkpt lat="46.09367" lon="6.66109">
        <ele>656.5</ele>
        <time>2023-08-15T16:46:29Z</time>
      </trkpt>
      <trkpt lat="46.09385" lon="6.6611">
        <ele>656.6</ele>
        <time>2023-08-15T16:46:35Z</time>
      </trkpt>
      <trkpt lat="46.09405" lon="6.66111">
        <ele>656.8</ele>
        <time>2023-08-15T16:46:41Z</time>
      </trkpt>
      <trkpt lat="46.09423" lon="6.66104">
        <ele>656.7</ele>
        <time>2023-08-15T16:46:47Z</time>
      </trkpt>
      <trkpt lat="46.09442" lon="6.66092">
        <ele>656.4</ele>
        <time>2023-08-15T16:46:54Z</time>
      </trkpt>
      <trkpt lat="46.09457" lon="6.66078">
        <ele>656.1</ele>
        <time>2023-08-15T16:47:00Z</time>
      </trkpt>
      <trkpt lat="46.0947" lon="6.66059">
        <ele>656</ele>
        <time>2023-08-15T16:47:06Z</time>
      </trkpt>
      <trkpt lat="46.09479" lon="6.66036">
        <ele>656</ele>
        <time>2023-08-15T16:47:12Z</time>
      </trkpt>
      <trkpt lat="46.09491" lon="6.66015">
        <ele>656</ele>
        <time>2023-08-15T16:47:18Z</time>
      </trkpt>
      <trkpt lat="46.09506" lon="6.66001">
        <ele>656</ele>
        <time>2023-08-15T16:47:24Z</time>
      </trkpt>
      <trkpt lat="46.09523" lon="6.65985">
        <ele>655.8</ele>
        <time>2023-08-15T16:47:30Z</time>
      </trkpt>
      <trkpt lat="46.09536" lon="6.65963">
        <ele>655.6</ele>
        <time>2023-08-15T16:47:37Z</time>
      </trkpt>
      <trkpt lat="46.09551" lon="6.65946">
        <ele>655.4</ele>
        <time>2023-08-15T16:47:43Z</time>
      </trkpt>
      <trkpt lat="46.09564" lon="6.65928">
        <ele>655.3</ele>
        <time>2023-08-15T16:47:49Z</time>
      </trkpt>
      <trkpt lat="46.09577" lon="6.65906">
        <ele>655.1</ele>
        <time>2023-08-15T16:47:56Z</time>
      </trkpt>
      <trkpt lat="46.09582" lon="6.6588">
        <ele>654.8</ele>
        <time>2023-08-15T16:48:03Z</time>
      </trkpt>
      <trkpt lat="46.09578" lon="6.65853">
        <ele>654.6</ele>
        <time>2023-08-15T16:48:09Z</time>
      </trkpt>
      <trkpt lat="46.09572" lon="6.65825">
        <ele>654.4</ele>
        <time>2023-08-15T16:48:16Z</time>
      </trkpt>
      <trkpt lat="46.09566" lon="6.65797">
        <ele>654.2</ele>
        <time>2023-08-15T16:48:23Z</time>
      </trkpt>
      <trkpt lat="46.09557" lon="6.65771">
        <ele>654.1</ele>
        <time>2023-08-15T16:48:30Z</time>
      </trkpt>
      <trkpt lat="46.0955" lon="6.65746">
        <ele>653.8</ele>
        <time>2023-08-15T16:48:37Z</time>
      </trkpt>
      <trkpt lat="46.09549" lon="6.65716">
        <ele>653.5</ele>
        <time>2023-08-15T16:48:44Z</time>
      </trkpt>
      <trkpt lat="46.0955" lon="6.65691">
        <ele>653.2</ele>
        <time>2023-08-15T16:48:51Z</time>
      </trkpt>
      <trkpt lat="46.09551" lon="6.65664">
        <ele>653</ele>
        <time>2023-08-15T16:48:57Z</time>
      </trkpt>
      <trkpt lat="46.09554" lon="6.65635">
        <ele>652.9</ele>
        <time>2023-08-15T16:49:03Z</time>
      </trkpt>
      <trkpt lat="46.09561" lon="6.65611">
        <ele>652.8</ele>
        <time>2023-08-15T16:49:09Z</time>
      </trkpt>
      <trkpt lat="46.09565" lon="6.65586">
        <ele>652.7</ele>
        <time>2023-08-15T16:49:15Z</time>
      </trkpt>
      <trkpt lat="46.09568" lon="6.6556">
        <ele>652.6</ele>
        <time>2023-08-15T16:49:21Z</time>
      </trkpt>
      <trkpt lat="46.09573" lon="6.65532">
        <ele>652.6</ele>
        <time>2023-08-15T16:49:28Z</time>
      </trkpt>
      <trkpt lat="46.09579" lon="6.65502">
        <ele>652.4</ele>
        <time>2023-08-15T16:49:35Z</time>
      </trkpt>
      <trkpt lat="46.09584" lon="6.65477">
        <ele>652.1</ele>
        <time>2023-08-15T16:49:40Z</time>
      </trkpt>
      <trkpt lat="46.0959" lon="6.65449">
        <ele>651.8</ele>
        <time>2023-08-15T16:49:46Z</time>
      </trkpt>
      <trkpt lat="46.09596" lon="6.65421">
        <ele>651.5</ele>
        <time>2023-08-15T16:49:52Z</time>
      </trkpt>
      <trkpt lat="46.09604" lon="6.65394">
        <ele>651.4</ele>
        <time>2023-08-15T16:50:00Z</time>
      </trkpt>
      <trkpt lat="46.0961" lon="6.65366">
        <ele>651.5</ele>
        <time>2023-08-15T16:50:08Z</time>
      </trkpt>
      <trkpt lat="46.09613" lon="6.65339">
        <ele>651.7</ele>
        <time>2023-08-15T16:50:15Z</time>
      </trkpt>
      <trkpt lat="46.09616" lon="6.65312">
        <ele>651.9</ele>
        <time>2023-08-15T16:50:21Z</time>
      </trkpt>
      <trkpt lat="46.0962" lon="6.65283">
        <ele>651.9</ele>
        <time>2023-08-15T16:50:27Z</time>
      </trkpt>
      <trkpt lat="46.09626" lon="6.65256">
        <ele>651.8</ele>
        <time>2023-08-15T16:50:34Z</time>
      </trkpt>
      <trkpt lat="46.09638" lon="6.65236">
        <ele>651.7</ele>
        <time>2023-08-15T16:50:40Z</time>
      </trkpt>
      <trkpt lat="46.09646" lon="6.65213">
        <ele>651.7</ele>
        <time>2023-08-15T16:50:46Z</time>
      </trkpt>
      <trkpt lat="46.0965" lon="6.65183">
        <ele>651.6</ele>
        <time>2023-08-15T16:50:53Z</time>
      </trkpt>
      <trkpt lat="46.09642" lon="6.65159">
        <ele>651.3</ele>
        <time>2023-08-15T16:50:58Z</time>
      </trkpt>
      <trkpt lat="46.09642" lon="6.65149">
        <ele>651.2</ele>
        <time>2023-08-15T16:50:59Z</time>
      </trkpt>
      <trkpt lat="46.09655" lon="6.65126">
        <ele>650.8</ele>
        <time>2023-08-15T16:51:06Z</time>
      </trkpt>
      <trkpt lat="46.09663" lon="6.65099">
        <ele>650.5</ele>
        <time>2023-08-15T16:51:12Z</time>
      </trkpt>
      <trkpt lat="46.09665" lon="6.65073">
        <ele>650.3</ele>
        <time>2023-08-15T16:51:17Z</time>
      </trkpt>
      <trkpt lat="46.09671" lon="6.65046">
        <ele>650.2</ele>
        <time>2023-08-15T16:51:23Z</time>
      </trkpt>
      <trkpt lat="46.09675" lon="6.65021">
        <ele>650.1</ele>
        <time>2023-08-15T16:51:29Z</time>
      </trkpt>
      <trkpt lat="46.09678" lon="6.64991">
        <ele>649.9</ele>
        <time>2023-08-15T16:51:36Z</time>
      </trkpt>
      <trkpt lat="46.09682" lon="6.64962">
        <ele>649.8</ele>
        <time>2023-08-15T16:51:42Z</time>
      </trkpt>
      <trkpt lat="46.09685" lon="6.64935">
        <ele>649.8</ele>
        <time>2023-08-15T16:51:48Z</time>
      </trkpt>
      <trkpt lat="46.09689" lon="6.64908">
        <ele>649.8</ele>
        <time>2023-08-15T16:51:54Z</time>
      </trkpt>
      <trkpt lat="46.09692" lon="6.64882">
        <ele>649.8</ele>
        <time>2023-08-15T16:52:00Z</time>
      </trkpt>
      <trkpt lat="46.09695" lon="6.64855">
        <ele>649.7</ele>
        <time>2023-08-15T16:52:06Z</time>
      </trkpt>
      <trkpt lat="46.09701" lon="6.64828">
        <ele>649.6</ele>
        <time>2023-08-15T16:52:12Z</time>
      </trkpt>
      <trkpt lat="46.09706" lon="6.64803">
        <ele>649.5</ele>
        <time>2023-08-15T16:52:18Z</time>
      </trkpt>
      <trkpt lat="46.09715" lon="6.64777">
        <ele>649.5</ele>
        <time>2023-08-15T16:52:25Z</time>
      </trkpt>
      <trkpt lat="46.09719" lon="6.64751">
        <ele>649.7</ele>
        <time>2023-08-15T16:52:31Z</time>
      </trkpt>
      <trkpt lat="46.09727" lon="6.64723">
        <ele>649.7</ele>
        <time>2023-08-15T16:52:38Z</time>
      </trkpt>
      <trkpt lat="46.09733" lon="6.64694">
        <ele>649.6</ele>
        <time>2023-08-15T16:52:45Z</time>
      </trkpt>
      <trkpt lat="46.09735" lon="6.64664">
        <ele>649.5</ele>
        <time>2023-08-15T16:52:51Z</time>
      </trkpt>
      <trkpt lat="46.09736" lon="6.64633">
        <ele>649.4</ele>
        <time>2023-08-15T16:52:57Z</time>
      </trkpt>
      <trkpt lat="46.09739" lon="6.64603">
        <ele>649.3</ele>
        <time>2023-08-15T16:53:03Z</time>
      </trkpt>
      <trkpt lat="46.0974" lon="6.64576">
        <ele>649.2</ele>
        <time>2023-08-15T16:53:08Z</time>
      </trkpt>
      <trkpt lat="46.09741" lon="6.64547">
        <ele>649</ele>
        <time>2023-08-15T16:53:14Z</time>
      </trkpt>
      <trkpt lat="46.09737" lon="6.64521">
        <ele>648.8</ele>
        <time>2023-08-15T16:53:20Z</time>
      </trkpt>
      <trkpt lat="46.09735" lon="6.64493">
        <ele>648.7</ele>
        <time>2023-08-15T16:53:25Z</time>
      </trkpt>
      <trkpt lat="46.09742" lon="6.64469">
        <ele>648.5</ele>
        <time>2023-08-15T16:53:30Z</time>
      </trkpt>
      <trkpt lat="46.09753" lon="6.64445">
        <ele>648.4</ele>
        <time>2023-08-15T16:53:36Z</time>
      </trkpt>
      <trkpt lat="46.09759" lon="6.6442">
        <ele>648.3</ele>
        <time>2023-08-15T16:53:42Z</time>
      </trkpt>
      <trkpt lat="46.09764" lon="6.64393">
        <ele>648.2</ele>
        <time>2023-08-15T16:53:48Z</time>
      </trkpt>
      <trkpt lat="46.09768" lon="6.64365">
        <ele>648.1</ele>
        <time>2023-08-15T16:53:54Z</time>
      </trkpt>
      <trkpt lat="46.09775" lon="6.64338">
        <ele>648</ele>
        <time>2023-08-15T16:54:00Z</time>
      </trkpt>
      <trkpt lat="46.09781" lon="6.64311">
        <ele>647.8</ele>
        <time>2023-08-15T16:54:06Z</time>
      </trkpt>
      <trkpt lat="46.09786" lon="6.64282">
        <ele>647.7</ele>
        <time>2023-08-15T16:54:12Z</time>
      </trkpt>
      <trkpt lat="46.09791" lon="6.64253">
        <ele>647.6</ele>
        <time>2023-08-15T16:54:18Z</time>
      </trkpt>
      <trkpt lat="46.09793" lon="6.64224">
        <ele>647.4</ele>
        <time>2023-08-15T16:54:24Z</time>
      </trkpt>
      <trkpt lat="46.09802" lon="6.64201">
        <ele>647.4</ele>
        <time>2023-08-15T16:54:29Z</time>
      </trkpt>
      <trkpt lat="46.09807" lon="6.64174">
        <ele>647.3</ele>
        <time>2023-08-15T16:54:34Z</time>
      </trkpt>
      <trkpt lat="46.09815" lon="6.64146">
        <ele>647.2</ele>
        <time>2023-08-15T16:54:40Z</time>
      </trkpt>
      <trkpt lat="46.09826" lon="6.64121">
        <ele>647.2</ele>
        <time>2023-08-15T16:54:46Z</time>
      </trkpt>
      <trkpt lat="46.0983" lon="6.64092">
        <ele>647.1</ele>
        <time>2023-08-15T16:54:52Z</time>
      </trkpt>
      <trkpt lat="46.09835" lon="6.64064">
        <ele>647</ele>
        <time>2023-08-15T16:54:59Z</time>
      </trkpt>
      <trkpt lat="46.0984" lon="6.64034">
        <ele>646.9</ele>
        <time>2023-08-15T16:55:05Z</time>
      </trkpt>
      <trkpt lat="46.09841" lon="6.64006">
        <ele>646.7</ele>
        <time>2023-08-15T16:55:10Z</time>
      </trkpt>
      <trkpt lat="46.09842" lon="6.63976">
        <ele>646.5</ele>
        <time>2023-08-15T16:55:16Z</time>
      </trkpt>
      <trkpt lat="46.09844" lon="6.63947">
        <ele>646.3</ele>
        <time>2023-08-15T16:55:22Z</time>
      </trkpt>
      <trkpt lat="46.09841" lon="6.63917">
        <ele>646.1</ele>
        <time>2023-08-15T16:55:28Z</time>
      </trkpt>
      <trkpt lat="46.09842" lon="6.6389">
        <ele>646</ele>
        <time>2023-08-15T16:55:33Z</time>
      </trkpt>
      <trkpt lat="46.0985" lon="6.63865">
        <ele>645.9</ele>
        <time>2023-08-15T16:55:39Z</time>
      </trkpt>
      <trkpt lat="46.09855" lon="6.6384">
        <ele>645.8</ele>
        <time>2023-08-15T16:55:45Z</time>
      </trkpt>
      <trkpt lat="46.09859" lon="6.63813">
        <ele>645.7</ele>
        <time>2023-08-15T16:55:51Z</time>
      </trkpt>
      <trkpt lat="46.09863" lon="6.63788">
        <ele>645.6</ele>
        <time>2023-08-15T16:55:57Z</time>
      </trkpt>
      <trkpt lat="46.09872" lon="6.6376">
        <ele>645.6</ele>
        <time>2023-08-15T16:56:04Z</time>
      </trkpt>
      <trkpt lat="46.09882" lon="6.63736">
        <ele>645.6</ele>
        <time>2023-08-15T16:56:11Z</time>
      </trkpt>
      <trkpt lat="46.09889" lon="6.6371">
        <ele>645.6</ele>
        <time>2023-08-15T16:56:17Z</time>
      </trkpt>
      <trkpt lat="46.09893" lon="6.6368">
        <ele>645.5</ele>
        <time>2023-08-15T16:56:23Z</time>
      </trkpt>
      <trkpt lat="46.09898" lon="6.63652">
        <ele>645.3</ele>
        <time>2023-08-15T16:56:29Z</time>
      </trkpt>
      <trkpt lat="46.09905" lon="6.63626">
        <ele>645.2</ele>
        <time>2023-08-15T16:56:35Z</time>
      </trkpt>
      <trkpt lat="46.09911" lon="6.63596">
        <ele>645.1</ele>
        <time>2023-08-15T16:56:41Z</time>
      </trkpt>
      <trkpt lat="46.09915" lon="6.63567">
        <ele>644.9</ele>
        <time>2023-08-15T16:56:47Z</time>
      </trkpt>
      <trkpt lat="46.09916" lon="6.63541">
        <ele>644.8</ele>
        <time>2023-08-15T16:56:54Z</time>
      </trkpt>
      <trkpt lat="46.09921" lon="6.63515">
        <ele>644.7</ele>
        <time>2023-08-15T16:57:01Z</time>
      </trkpt>
      <trkpt lat="46.09929" lon="6.63488">
        <ele>644.5</ele>
        <time>2023-08-15T16:57:07Z</time>
      </trkpt>
      <trkpt lat="46.09937" lon="6.63461">
        <ele>644.3</ele>
        <time>2023-08-15T16:57:13Z</time>
      </trkpt>
      <trkpt lat="46.09938" lon="6.63434">
        <ele>644</ele>
        <time>2023-08-15T16:57:18Z</time>
      </trkpt>
      <trkpt lat="46.09939" lon="6.63403">
        <ele>643.6</ele>
        <time>2023-08-15T16:57:23Z</time>
      </trkpt>
      <trkpt lat="46.09944" lon="6.63375">
        <ele>643.5</ele>
        <time>2023-08-15T16:57:28Z</time>
      </trkpt>
      <trkpt lat="46.09948" lon="6.63346">
        <ele>643.5</ele>
        <time>2023-08-15T16:57:34Z</time>
      </trkpt>
      <trkpt lat="46.09953" lon="6.63317">
        <ele>643.6</ele>
        <time>2023-08-15T16:57:41Z</time>
      </trkpt>
      <trkpt lat="46.09958" lon="6.63287">
        <ele>643.5</ele>
        <time>2023-08-15T16:57:47Z</time>
      </trkpt>
      <trkpt lat="46.09962" lon="6.63257">
        <ele>643.4</ele>
        <time>2023-08-15T16:57:53Z</time>
      </trkpt>
      <trkpt lat="46.09965" lon="6.63249">
        <ele>643.4</ele>
        <time>2023-08-15T16:57:54Z</time>
      </trkpt>
      <trkpt lat="46.09971" lon="6.63223">
        <ele>643.3</ele>
        <time>2023-08-15T16:58:00Z</time>
      </trkpt>
      <trkpt lat="46.09974" lon="6.63196">
        <ele>643.3</ele>
        <time>2023-08-15T16:58:05Z</time>
      </trkpt>
      <trkpt lat="46.09971" lon="6.63168">
        <ele>643.2</ele>
        <time>2023-08-15T16:58:10Z</time>
      </trkpt>
      <trkpt lat="46.09979" lon="6.63142">
        <ele>643</ele>
        <time>2023-08-15T16:58:15Z</time>
      </trkpt>
      <trkpt lat="46.09982" lon="6.63111">
        <ele>642.9</ele>
        <time>2023-08-15T16:58:20Z</time>
      </trkpt>
      <trkpt lat="46.09985" lon="6.63084">
        <ele>642.9</ele>
        <time>2023-08-15T16:58:25Z</time>
      </trkpt>
      <trkpt lat="46.09992" lon="6.63059">
        <ele>642.7</ele>
        <time>2023-08-15T16:58:30Z</time>
      </trkpt>
      <trkpt lat="46.09997" lon="6.63033">
        <ele>642.6</ele>
        <time>2023-08-15T16:58:35Z</time>
      </trkpt>
      <trkpt lat="46.10002" lon="6.63003">
        <ele>642.5</ele>
        <time>2023-08-15T16:58:40Z</time>
      </trkpt>
      <trkpt lat="46.10003" lon="6.62975">
        <ele>642.4</ele>
        <time>2023-08-15T16:58:45Z</time>
      </trkpt>
      <trkpt lat="46.10006" lon="6.62947">
        <ele>642.2</ele>
        <time>2023-08-15T16:58:50Z</time>
      </trkpt>
      <trkpt lat="46.1001" lon="6.62921">
        <ele>642.1</ele>
        <time>2023-08-15T16:58:56Z</time>
      </trkpt>
      <trkpt lat="46.10007" lon="6.62891">
        <ele>641.8</ele>
        <time>2023-08-15T16:59:02Z</time>
      </trkpt>
      <trkpt lat="46.10001" lon="6.62864">
        <ele>641.5</ele>
        <time>2023-08-15T16:59:07Z</time>
      </trkpt>
      <trkpt lat="46.10003" lon="6.62834">
        <ele>641.2</ele>
        <time>2023-08-15T16:59:12Z</time>
      </trkpt>
      <trkpt lat="46.10006" lon="6.62806">
        <ele>641</ele>
        <time>2023-08-15T16:59:16Z</time>
      </trkpt>
      <trkpt lat="46.10007" lon="6.62775">
        <ele>640.8</ele>
        <time>2023-08-15T16:59:21Z</time>
      </trkpt>
      <trkpt lat="46.10005" lon="6.62748">
        <ele>640.6</ele>
        <time>2023-08-15T16:59:25Z</time>
      </trkpt>
      <trkpt lat="46.10009" lon="6.6272">
        <ele>640.5</ele>
        <time>2023-08-15T16:59:30Z</time>
      </trkpt>
      <trkpt lat="46.1002" lon="6.62697">
        <ele>640.5</ele>
        <time>2023-08-15T16:59:36Z</time>
      </trkpt>
      <trkpt lat="46.10019" lon="6.6267">
        <ele>640.5</ele>
        <time>2023-08-15T16:59:42Z</time>
      </trkpt>
      <trkpt lat="46.10019" lon="6.62643">
        <ele>640.4</ele>
        <time>2023-08-15T16:59:47Z</time>
      </trkpt>
      <trkpt lat="46.10025" lon="6.62616">
        <ele>640.4</ele>
        <time>2023-08-15T16:59:53Z</time>
      </trkpt>
      <trkpt lat="46.10025" lon="6.62585">
        <ele>640.4</ele>
        <time>2023-08-15T16:59:59Z</time>
      </trkpt>
      <trkpt lat="46.10024" lon="6.62557">
        <ele>640.3</ele>
        <time>2023-08-15T17:00:05Z</time>
      </trkpt>
      <trkpt lat="46.10025" lon="6.6253">
        <ele>640.2</ele>
        <time>2023-08-15T17:00:10Z</time>
      </trkpt>
      <trkpt lat="46.10026" lon="6.625">
        <ele>639.9</ele>
        <time>2023-08-15T17:00:15Z</time>
      </trkpt>
      <trkpt lat="46.10025" lon="6.62469">
        <ele>639.6</ele>
        <time>2023-08-15T17:00:20Z</time>
      </trkpt>
      <trkpt lat="46.10026" lon="6.62437">
        <ele>639.3</ele>
        <time>2023-08-15T17:00:25Z</time>
      </trkpt>
      <trkpt lat="46.10027" lon="6.62407">
        <ele>639.2</ele>
        <time>2023-08-15T17:00:30Z</time>
      </trkpt>
      <trkpt lat="46.10028" lon="6.62378">
        <ele>639.2</ele>
        <time>2023-08-15T17:00:36Z</time>
      </trkpt>
      <trkpt lat="46.10025" lon="6.62348">
        <ele>639.1</ele>
        <time>2023-08-15T17:00:42Z</time>
      </trkpt>
      <trkpt lat="46.10023" lon="6.62317">
        <ele>639</ele>
        <time>2023-08-15T17:00:48Z</time>
      </trkpt>
      <trkpt lat="46.10019" lon="6.62288">
        <ele>638.9</ele>
        <time>2023-08-15T17:00:54Z</time>
      </trkpt>
      <trkpt lat="46.10011" lon="6.62262">
        <ele>638.7</ele>
        <time>2023-08-15T17:01:00Z</time>
      </trkpt>
      <trkpt lat="46.09999" lon="6.62239">
        <ele>638.5</ele>
        <time>2023-08-15T17:01:06Z</time>
      </trkpt>
      <trkpt lat="46.09987" lon="6.62218">
        <ele>638.4</ele>
        <time>2023-08-15T17:01:12Z</time>
      </trkpt>
      <trkpt lat="46.09977" lon="6.62194">
        <ele>638.4</ele>
        <time>2023-08-15T17:01:18Z</time>
      </trkpt>
      <trkpt lat="46.09974" lon="6.62165">
        <ele>638.1</ele>
        <time>2023-08-15T17:01:24Z</time>
      </trkpt>
      <trkpt lat="46.09971" lon="6.62135">
        <ele>638</ele>
        <time>2023-08-15T17:01:30Z</time>
      </trkpt>
      <trkpt lat="46.09972" lon="6.62109">
        <ele>638.8</ele>
        <time>2023-08-15T17:01:35Z</time>
      </trkpt>
      <trkpt lat="46.09978" lon="6.62082">
        <ele>639.6</ele>
        <time>2023-08-15T17:01:43Z</time>
      </trkpt>
      <trkpt lat="46.09983" lon="6.62079">
        <ele>639.6</ele>
        <time>2023-08-15T17:01:44Z</time>
      </trkpt>
      <trkpt lat="46.1" lon="6.6207">
        <ele>639.2</ele>
        <time>2023-08-15T17:01:51Z</time>
      </trkpt>
      <trkpt lat="46.10018" lon="6.62062">
        <ele>637.9</ele>
        <time>2023-08-15T17:01:57Z</time>
      </trkpt>
      <trkpt lat="46.10036" lon="6.62051">
        <ele>637.2</ele>
        <time>2023-08-15T17:02:03Z</time>
      </trkpt>
      <trkpt lat="46.10054" lon="6.6206">
        <ele>637.5</ele>
        <time>2023-08-15T17:02:10Z</time>
      </trkpt>
      <trkpt lat="46.10058" lon="6.62088">
        <ele>637.8</ele>
        <time>2023-08-15T17:02:16Z</time>
      </trkpt>
      <trkpt lat="46.10056" lon="6.62117">
        <ele>638</ele>
        <time>2023-08-15T17:02:23Z</time>
      </trkpt>
      <trkpt lat="46.10057" lon="6.62143">
        <ele>638.1</ele>
        <time>2023-08-15T17:02:29Z</time>
      </trkpt>
      <trkpt lat="46.1006" lon="6.62169">
        <ele>638.2</ele>
        <time>2023-08-15T17:02:34Z</time>
      </trkpt>
      <trkpt lat="46.10065" lon="6.62194">
        <ele>638.2</ele>
        <time>2023-08-15T17:02:41Z</time>
      </trkpt>
      <trkpt lat="46.10068" lon="6.62222">
        <ele>638.2</ele>
        <time>2023-08-15T17:02:47Z</time>
      </trkpt>
      <trkpt lat="46.1007" lon="6.62248">
        <ele>638.1</ele>
        <time>2023-08-15T17:02:53Z</time>
      </trkpt>
      <trkpt lat="46.10073" lon="6.62275">
        <ele>638</ele>
        <time>2023-08-15T17:02:59Z</time>
      </trkpt>
      <trkpt lat="46.10076" lon="6.62302">
        <ele>638</ele>
        <time>2023-08-15T17:03:05Z</time>
      </trkpt>
      <trkpt lat="46.10078" lon="6.62329">
        <ele>638</ele>
        <time>2023-08-15T17:03:11Z</time>
      </trkpt>
      <trkpt lat="46.10081" lon="6.62355">
        <ele>637.9</ele>
        <time>2023-08-15T17:03:17Z</time>
      </trkpt>
      <trkpt lat="46.10086" lon="6.62382">
        <ele>638</ele>
        <time>2023-08-15T17:03:23Z</time>
      </trkpt>
      <trkpt lat="46.10091" lon="6.6241">
        <ele>638.2</ele>
        <time>2023-08-15T17:03:29Z</time>
      </trkpt>
      <trkpt lat="46.10097" lon="6.62438">
        <ele>638.6</ele>
        <time>2023-08-15T17:03:36Z</time>
      </trkpt>
      <trkpt lat="46.10101" lon="6.62466">
        <ele>639.1</ele>
        <time>2023-08-15T17:03:43Z</time>
      </trkpt>
      <trkpt lat="46.10105" lon="6.62496">
        <ele>639.5</ele>
        <time>2023-08-15T17:03:49Z</time>
      </trkpt>
      <trkpt lat="46.10108" lon="6.62523">
        <ele>639.6</ele>
        <time>2023-08-15T17:03:56Z</time>
      </trkpt>
      <trkpt lat="46.10104" lon="6.62551">
        <ele>639.7</ele>
        <time>2023-08-15T17:04:02Z</time>
      </trkpt>
      <trkpt lat="46.10098" lon="6.62557">
        <ele>639.9</ele>
        <time>2023-08-15T17:04:03Z</time>
      </trkpt>
      <trkpt lat="46.1009" lon="6.62579">
        <ele>640.2</ele>
        <time>2023-08-15T17:04:12Z</time>
      </trkpt>
      <trkpt lat="46.10089" lon="6.62608">
        <ele>640.4</ele>
        <time>2023-08-15T17:04:18Z</time>
      </trkpt>
      <trkpt lat="46.10092" lon="6.62637">
        <ele>640.4</ele>
        <time>2023-08-15T17:04:27Z</time>
      </trkpt>
      <trkpt lat="46.10091" lon="6.62665">
        <ele>640.3</ele>
        <time>2023-08-15T17:04:35Z</time>
      </trkpt>
      <trkpt lat="46.10089" lon="6.62693">
        <ele>640.2</ele>
        <time>2023-08-15T17:04:40Z</time>
      </trkpt>
      <trkpt lat="46.10085" lon="6.62719">
        <ele>640.3</ele>
        <time>2023-08-15T17:04:45Z</time>
      </trkpt>
      <trkpt lat="46.10088" lon="6.62747">
        <ele>640.6</ele>
        <time>2023-08-15T17:04:51Z</time>
      </trkpt>
      <trkpt lat="46.10088" lon="6.62774">
        <ele>640.8</ele>
        <time>2023-08-15T17:04:57Z</time>
      </trkpt>
      <trkpt lat="46.10081" lon="6.62798">
        <ele>641</ele>
        <time>2023-08-15T17:05:05Z</time>
      </trkpt>
      <trkpt lat="46.10075" lon="6.62826">
        <ele>641.3</ele>
        <time>2023-08-15T17:05:14Z</time>
      </trkpt>
      <trkpt lat="46.10075" lon="6.62855">
        <ele>641.6</ele>
        <time>2023-08-15T17:05:20Z</time>
      </trkpt>
      <trkpt lat="46.10073" lon="6.62885">
        <ele>641.8</ele>
        <time>2023-08-15T17:05:26Z</time>
      </trkpt>
      <trkpt lat="46.10065" lon="6.62912">
        <ele>641.7</ele>
        <time>2023-08-15T17:05:30Z</time>
      </trkpt>
      <trkpt lat="46.10063" lon="6.62941">
        <ele>641.5</ele>
        <time>2023-08-15T17:05:35Z</time>
      </trkpt>
      <trkpt lat="46.10059" lon="6.62968">
        <ele>641.5</ele>
        <time>2023-08-15T17:05:40Z</time>
      </trkpt>
      <trkpt lat="46.10053" lon="6.62994">
        <ele>641.6</ele>
        <time>2023-08-15T17:05:45Z</time>
      </trkpt>
      <trkpt lat="46.10048" lon="6.63022">
        <ele>641.7</ele>
        <time>2023-08-15T17:05:50Z</time>
      </trkpt>
      <trkpt lat="46.1005" lon="6.63049">
        <ele>641.9</ele>
        <time>2023-08-15T17:05:56Z</time>
      </trkpt>
      <trkpt lat="46.10044" lon="6.63079">
        <ele>642.2</ele>
        <time>2023-08-15T17:06:02Z</time>
      </trkpt>
      <trkpt lat="46.10041" lon="6.63105">
        <ele>642.4</ele>
        <time>2023-08-15T17:06:07Z</time>
      </trkpt>
      <trkpt lat="46.10044" lon="6.63132">
        <ele>642.6</ele>
        <time>2023-08-15T17:06:12Z</time>
      </trkpt>
      <trkpt lat="46.10042" lon="6.63159">
        <ele>642.5</ele>
        <time>2023-08-15T17:06:18Z</time>
      </trkpt>
      <trkpt lat="46.10039" lon="6.63189">
        <ele>642.6</ele>
        <time>2023-08-15T17:06:25Z</time>
      </trkpt>
      <trkpt lat="46.10039" lon="6.63218">
        <ele>642.9</ele>
        <time>2023-08-15T17:06:31Z</time>
      </trkpt>
      <trkpt lat="46.10037" lon="6.63246">
        <ele>643.1</ele>
        <time>2023-08-15T17:06:38Z</time>
      </trkpt>
      <trkpt lat="46.10033" lon="6.63273">
        <ele>643.4</ele>
        <time>2023-08-15T17:06:43Z</time>
      </trkpt>
      <trkpt lat="46.10023" lon="6.63288">
        <ele>643.6</ele>
        <time>2023-08-15T17:06:50Z</time>
      </trkpt>
      <trkpt lat="46.10018" lon="6.63314">
        <ele>644</ele>
        <time>2023-08-15T17:06:56Z</time>
      </trkpt>
      <trkpt lat="46.1001" lon="6.63339">
        <ele>644.1</ele>
        <time>2023-08-15T17:07:01Z</time>
      </trkpt>
      <trkpt lat="46.10003" lon="6.63367">
        <ele>644.1</ele>
        <time>2023-08-15T17:07:07Z</time>
      </trkpt>
      <trkpt lat="46.09997" lon="6.63392">
        <ele>644.2</ele>
        <time>2023-08-15T17:07:11Z</time>
      </trkpt>
      <trkpt lat="46.09988" lon="6.63417">
        <ele>644.3</ele>
        <time>2023-08-15T17:07:16Z</time>
      </trkpt>
      <trkpt lat="46.09984" lon="6.63446">
        <ele>644.4</ele>
        <time>2023-08-15T17:07:22Z</time>
      </trkpt>
      <trkpt lat="46.09981" lon="6.63472">
        <ele>644.5</ele>
        <time>2023-08-15T17:07:26Z</time>
      </trkpt>
      <trkpt lat="46.09975" lon="6.63503">
        <ele>644.6</ele>
        <time>2023-08-15T17:07:31Z</time>
      </trkpt>
      <trkpt lat="46.09969" lon="6.63532">
        <ele>644.6</ele>
        <time>2023-08-15T17:07:36Z</time>
      </trkpt>
      <trkpt lat="46.09966" lon="6.6356">
        <ele>644.7</ele>
        <time>2023-08-15T17:07:41Z</time>
      </trkpt>
      <trkpt lat="46.09962" lon="6.6359">
        <ele>644.9</ele>
        <time>2023-08-15T17:07:46Z</time>
      </trkpt>
      <trkpt lat="46.09962" lon="6.63618">
        <ele>644.8</ele>
        <time>2023-08-15T17:07:51Z</time>
      </trkpt>
      <trkpt lat="46.0996" lon="6.63644">
        <ele>644.5</ele>
        <time>2023-08-15T17:07:56Z</time>
      </trkpt>
      <trkpt lat="46.09956" lon="6.63672">
        <ele>644.3</ele>
        <time>2023-08-15T17:08:01Z</time>
      </trkpt>
      <trkpt lat="46.09952" lon="6.63699">
        <ele>644.4</ele>
        <time>2023-08-15T17:08:07Z</time>
      </trkpt>
      <trkpt lat="46.09945" lon="6.63725">
        <ele>644.7</ele>
        <time>2023-08-15T17:08:13Z</time>
      </trkpt>
      <trkpt lat="46.09941" lon="6.63751">
        <ele>645.5</ele>
        <time>2023-08-15T17:08:20Z</time>
      </trkpt>
      <trkpt lat="46.09933" lon="6.63774">
        <ele>646.3</ele>
        <time>2023-08-15T17:08:26Z</time>
      </trkpt>
      <trkpt lat="46.09931" lon="6.63801">
        <ele>647</ele>
        <time>2023-08-15T17:08:32Z</time>
      </trkpt>
      <trkpt lat="46.09925" lon="6.63828">
        <ele>646.9</ele>
        <time>2023-08-15T17:08:38Z</time>
      </trkpt>
      <trkpt lat="46.09921" lon="6.63857">
        <ele>646.5</ele>
        <time>2023-08-15T17:08:44Z</time>
      </trkpt>
      <trkpt lat="46.09914" lon="6.63883">
        <ele>646.5</ele>
        <time>2023-08-15T17:08:50Z</time>
      </trkpt>
      <trkpt lat="46.09908" lon="6.63911">
        <ele>646.6</ele>
        <time>2023-08-15T17:08:56Z</time>
      </trkpt>
      <trkpt lat="46.09904" lon="6.63939">
        <ele>646.8</ele>
        <time>2023-08-15T17:09:02Z</time>
      </trkpt>
      <trkpt lat="46.09896" lon="6.63968">
        <ele>646.9</ele>
        <time>2023-08-15T17:09:08Z</time>
      </trkpt>
      <trkpt lat="46.09894" lon="6.63995">
        <ele>646.9</ele>
        <time>2023-08-15T17:09:13Z</time>
      </trkpt>
      <trkpt lat="46.09889" lon="6.64021">
        <ele>647</ele>
        <time>2023-08-15T17:09:18Z</time>
      </trkpt>
      <trkpt lat="46.09883" lon="6.64046">
        <ele>647</ele>
        <time>2023-08-15T17:09:23Z</time>
      </trkpt>
      <trkpt lat="46.09879" lon="6.64072">
        <ele>647.2</ele>
        <time>2023-08-15T17:09:28Z</time>
      </trkpt>
      <trkpt lat="46.09876" lon="6.64098">
        <ele>647</ele>
        <time>2023-08-15T17:09:33Z</time>
      </trkpt>
      <trkpt lat="46.0987" lon="6.64123">
        <ele>646.9</ele>
        <time>2023-08-15T17:09:38Z</time>
      </trkpt>
      <trkpt lat="46.09864" lon="6.64151">
        <ele>647.4</ele>
        <time>2023-08-15T17:09:44Z</time>
      </trkpt>
      <trkpt lat="46.09857" lon="6.6418">
        <ele>647.9</ele>
        <time>2023-08-15T17:09:50Z</time>
      </trkpt>
      <trkpt lat="46.09855" lon="6.64209">
        <ele>648</ele>
        <time>2023-08-15T17:09:56Z</time>
      </trkpt>
      <trkpt lat="46.09857" lon="6.64237">
        <ele>647.8</ele>
        <time>2023-08-15T17:10:02Z</time>
      </trkpt>
      <trkpt lat="46.09864" lon="6.64261">
        <ele>647.8</ele>
        <time>2023-08-15T17:10:07Z</time>
      </trkpt>
      <trkpt lat="46.09866" lon="6.64288">
        <ele>647.7</ele>
        <time>2023-08-15T17:10:12Z</time>
      </trkpt>
      <trkpt lat="46.09863" lon="6.64313">
        <ele>647.7</ele>
        <time>2023-08-15T17:10:17Z</time>
      </trkpt>
      <trkpt lat="46.09856" lon="6.64338">
        <ele>647.6</ele>
        <time>2023-08-15T17:10:22Z</time>
      </trkpt>
      <trkpt lat="46.09849" lon="6.64365">
        <ele>647.7</ele>
        <time>2023-08-15T17:10:28Z</time>
      </trkpt>
      <trkpt lat="46.0984" lon="6.64393">
        <ele>647.8</ele>
        <time>2023-08-15T17:10:34Z</time>
      </trkpt>
      <trkpt lat="46.09829" lon="6.64418">
        <ele>648</ele>
        <time>2023-08-15T17:10:40Z</time>
      </trkpt>
      <trkpt lat="46.09822" lon="6.64446">
        <ele>648.3</ele>
        <time>2023-08-15T17:10:46Z</time>
      </trkpt>
      <trkpt lat="46.0982" lon="6.64476">
        <ele>648.4</ele>
        <time>2023-08-15T17:10:52Z</time>
      </trkpt>
      <trkpt lat="46.09817" lon="6.64506">
        <ele>648.6</ele>
        <time>2023-08-15T17:10:58Z</time>
      </trkpt>
      <trkpt lat="46.09814" lon="6.64534">
        <ele>648.8</ele>
        <time>2023-08-15T17:11:04Z</time>
      </trkpt>
      <trkpt lat="46.09809" lon="6.64563">
        <ele>649.1</ele>
        <time>2023-08-15T17:11:11Z</time>
      </trkpt>
      <trkpt lat="46.09807" lon="6.64593">
        <ele>649.4</ele>
        <time>2023-08-15T17:11:18Z</time>
      </trkpt>
      <trkpt lat="46.09804" lon="6.64621">
        <ele>649.5</ele>
        <time>2023-08-15T17:11:25Z</time>
      </trkpt>
      <trkpt lat="46.09797" lon="6.64646">
        <ele>649.4</ele>
        <time>2023-08-15T17:11:31Z</time>
      </trkpt>
      <trkpt lat="46.09788" lon="6.64671">
        <ele>649.4</ele>
        <time>2023-08-15T17:11:37Z</time>
      </trkpt>
      <trkpt lat="46.09782" lon="6.64699">
        <ele>649.5</ele>
        <time>2023-08-15T17:11:43Z</time>
      </trkpt>
      <trkpt lat="46.09776" lon="6.64728">
        <ele>649.7</ele>
        <time>2023-08-15T17:11:49Z</time>
      </trkpt>
      <trkpt lat="46.09775" lon="6.64756">
        <ele>649.9</ele>
        <time>2023-08-15T17:11:55Z</time>
      </trkpt>
      <trkpt lat="46.0977" lon="6.64764">
        <ele>650</ele>
        <time>2023-08-15T17:11:57Z</time>
      </trkpt>
      <trkpt lat="46.0976" lon="6.64785">
        <ele>650.1</ele>
        <time>2023-08-15T17:12:04Z</time>
      </trkpt>
      <trkpt lat="46.09755" lon="6.64812">
        <ele>649.9</ele>
        <time>2023-08-15T17:12:10Z</time>
      </trkpt>
      <trkpt lat="46.09749" lon="6.64837">
        <ele>649.8</ele>
        <time>2023-08-15T17:12:15Z</time>
      </trkpt>
      <trkpt lat="46.09745" lon="6.64866">
        <ele>650.1</ele>
        <time>2023-08-15T17:12:21Z</time>
      </trkpt>
      <trkpt lat="46.09745" lon="6.64894">
        <ele>650.3</ele>
        <time>2023-08-15T17:12:27Z</time>
      </trkpt>
      <trkpt lat="46.09742" lon="6.6492">
        <ele>650.5</ele>
        <time>2023-08-15T17:12:33Z</time>
      </trkpt>
      <trkpt lat="46.09737" lon="6.6495">
        <ele>650.7</ele>
        <time>2023-08-15T17:12:39Z</time>
      </trkpt>
      <trkpt lat="46.09737" lon="6.64963">
        <ele>650.9</ele>
        <time>2023-08-15T17:12:42Z</time>
      </trkpt>
      <trkpt lat="46.09747" lon="6.64986">
        <ele>651.2</ele>
        <time>2023-08-15T17:12:49Z</time>
      </trkpt>
      <trkpt lat="46.09742" lon="6.65013">
        <ele>651.5</ele>
        <time>2023-08-15T17:12:56Z</time>
      </trkpt>
      <trkpt lat="46.09736" lon="6.65039">
        <ele>651.6</ele>
        <time>2023-08-15T17:13:02Z</time>
      </trkpt>
      <trkpt lat="46.09728" lon="6.65065">
        <ele>651.9</ele>
        <time>2023-08-15T17:13:08Z</time>
      </trkpt>
      <trkpt lat="46.09719" lon="6.65089">
        <ele>652.2</ele>
        <time>2023-08-15T17:13:13Z</time>
      </trkpt>
      <trkpt lat="46.09713" lon="6.65115">
        <ele>652.5</ele>
        <time>2023-08-15T17:13:19Z</time>
      </trkpt>
      <trkpt lat="46.09716" lon="6.65125">
        <ele>652.5</ele>
        <time>2023-08-15T17:13:20Z</time>
      </trkpt>
      <trkpt lat="46.09728" lon="6.65145">
        <ele>652.4</ele>
        <time>2023-08-15T17:13:27Z</time>
      </trkpt>
      <trkpt lat="46.09734" lon="6.65173">
        <ele>652.5</ele>
        <time>2023-08-15T17:13:32Z</time>
      </trkpt>
      <trkpt lat="46.09745" lon="6.65195">
        <ele>652.4</ele>
        <time>2023-08-15T17:13:38Z</time>
      </trkpt>
      <trkpt lat="46.09761" lon="6.65211">
        <ele>652.4</ele>
        <time>2023-08-15T17:13:43Z</time>
      </trkpt>
      <trkpt lat="46.09768" lon="6.65235">
        <ele>652.5</ele>
        <time>2023-08-15T17:13:49Z</time>
      </trkpt>
      <trkpt lat="46.09762" lon="6.65262">
        <ele>652.6</ele>
        <time>2023-08-15T17:13:54Z</time>
      </trkpt>
      <trkpt lat="46.09752" lon="6.65287">
        <ele>652.5</ele>
        <time>2023-08-15T17:14:00Z</time>
      </trkpt>
      <trkpt lat="46.09739" lon="6.65307">
        <ele>652.5</ele>
        <time>2023-08-15T17:14:07Z</time>
      </trkpt>
      <trkpt lat="46.09726" lon="6.6533">
        <ele>652.5</ele>
        <time>2023-08-15T17:14:15Z</time>
      </trkpt>
      <trkpt lat="46.09711" lon="6.6535">
        <ele>652.5</ele>
        <time>2023-08-15T17:14:22Z</time>
      </trkpt>
      <trkpt lat="46.09694" lon="6.65362">
        <ele>652.3</ele>
        <time>2023-08-15T17:14:30Z</time>
      </trkpt>
      <trkpt lat="46.09678" lon="6.65386">
        <ele>652.3</ele>
        <time>2023-08-15T17:14:36Z</time>
      </trkpt>
      <trkpt lat="46.09671" lon="6.65413">
        <ele>652.4</ele>
        <time>2023-08-15T17:14:41Z</time>
      </trkpt>
      <trkpt lat="46.09668" lon="6.6544">
        <ele>652.4</ele>
        <time>2023-08-15T17:14:47Z</time>
      </trkpt>
      <trkpt lat="46.09661" lon="6.65468">
        <ele>652.4</ele>
        <time>2023-08-15T17:14:52Z</time>
      </trkpt>
      <trkpt lat="46.09654" lon="6.65493">
        <ele>652.3</ele>
        <time>2023-08-15T17:14:57Z</time>
      </trkpt>
      <trkpt lat="46.09648" lon="6.65517">
        <ele>652.2</ele>
        <time>2023-08-15T17:15:02Z</time>
      </trkpt>
      <trkpt lat="46.09644" lon="6.65547">
        <ele>652.3</ele>
        <time>2023-08-15T17:15:08Z</time>
      </trkpt>
      <trkpt lat="46.09636" lon="6.65571">
        <ele>652.3</ele>
        <time>2023-08-15T17:15:13Z</time>
      </trkpt>
      <trkpt lat="46.09641" lon="6.65601">
        <ele>652.4</ele>
        <time>2023-08-15T17:15:20Z</time>
      </trkpt>
      <trkpt lat="46.09639" lon="6.6563">
        <ele>652.5</ele>
        <time>2023-08-15T17:15:26Z</time>
      </trkpt>
      <trkpt lat="46.09634" lon="6.65658">
        <ele>653.1</ele>
        <time>2023-08-15T17:15:32Z</time>
      </trkpt>
      <trkpt lat="46.0963" lon="6.65685">
        <ele>653.5</ele>
        <time>2023-08-15T17:15:37Z</time>
      </trkpt>
      <trkpt lat="46.09626" lon="6.65712">
        <ele>653.7</ele>
        <time>2023-08-15T17:15:42Z</time>
      </trkpt>
      <trkpt lat="46.09629" lon="6.65741">
        <ele>653.7</ele>
        <time>2023-08-15T17:15:47Z</time>
      </trkpt>
      <trkpt lat="46.09631" lon="6.65767">
        <ele>653.9</ele>
        <time>2023-08-15T17:15:52Z</time>
      </trkpt>
      <trkpt lat="46.09636" lon="6.65796">
        <ele>654.1</ele>
        <time>2023-08-15T17:15:58Z</time>
      </trkpt>
      <trkpt lat="46.09637" lon="6.65826">
        <ele>654.4</ele>
        <time>2023-08-15T17:16:04Z</time>
      </trkpt>
      <trkpt lat="46.09638" lon="6.65853">
        <ele>654.7</ele>
        <time>2023-08-15T17:16:09Z</time>
      </trkpt>
      <trkpt lat="46.09641" lon="6.65882">
        <ele>655.3</ele>
        <time>2023-08-15T17:16:15Z</time>
      </trkpt>
      <trkpt lat="46.09646" lon="6.65908">
        <ele>655.9</ele>
        <time>2023-08-15T17:16:21Z</time>
      </trkpt>
      <trkpt lat="46.09646" lon="6.65934">
        <ele>656.4</ele>
        <time>2023-08-15T17:16:26Z</time>
      </trkpt>
      <trkpt lat="46.09643" lon="6.65963">
        <ele>656.8</ele>
        <time>2023-08-15T17:16:32Z</time>
      </trkpt>
      <trkpt lat="46.09636" lon="6.6599">
        <ele>657.3</ele>
        <time>2023-08-15T17:16:38Z</time>
      </trkpt>
      <trkpt lat="46.09629" lon="6.66016">
        <ele>657.8</ele>
        <time>2023-08-15T17:16:44Z</time>
      </trkpt>
      <trkpt lat="46.09622" lon="6.66043">
        <ele>658.3</ele>
        <time>2023-08-15T17:16:50Z</time>
      </trkpt>
      <trkpt lat="46.09615" lon="6.66069">
        <ele>658.9</ele>
        <time>2023-08-15T17:16:56Z</time>
      </trkpt>
      <trkpt lat="46.09608" lon="6.66096">
        <ele>659.3</ele>
        <time>2023-08-15T17:17:02Z</time>
      </trkpt>
      <trkpt lat="46.09601" lon="6.66123">
        <ele>659.8</ele>
        <time>2023-08-15T17:17:08Z</time>
      </trkpt>
      <trkpt lat="46.09591" lon="6.66144">
        <ele>660.3</ele>
        <time>2023-08-15T17:17:13Z</time>
      </trkpt>
      <trkpt lat="46.0958" lon="6.66165">
        <ele>660.9</ele>
        <time>2023-08-15T17:17:18Z</time>
      </trkpt>
      <trkpt lat="46.09568" lon="6.66188">
        <ele>661.4</ele>
        <time>2023-08-15T17:17:25Z</time>
      </trkpt>
      <trkpt lat="46.09563" lon="6.66213">
        <ele>661.9</ele>
        <time>2023-08-15T17:17:33Z</time>
      </trkpt>
      <trkpt lat="46.09562" lon="6.66218">
        <ele>662</ele>
        <time>2023-08-15T17:17:34Z</time>
      </trkpt>
      <trkpt lat="46.09556" lon="6.66245">
        <ele>662.4</ele>
        <time>2023-08-15T17:17:45Z</time>
      </trkpt>
      <trkpt lat="46.09558" lon="6.66272">
        <ele>662.6</ele>
        <time>2023-08-15T17:17:53Z</time>
      </trkpt>
      <trkpt lat="46.0955" lon="6.66293">
        <ele>662.8</ele>
        <time>2023-08-15T17:18:00Z</time>
      </trkpt>
      <trkpt lat="46.09533" lon="6.66282">
        <ele>661.7</ele>
        <time>2023-08-15T17:18:06Z</time>
      </trkpt>
      <trkpt lat="46.09519" lon="6.66274">
        <ele>660.5</ele>
        <time>2023-08-15T17:18:11Z</time>
      </trkpt>
      <trkpt lat="46.09508" lon="6.66299">
        <ele>658.7</ele>
        <time>2023-08-15T17:18:17Z</time>
      </trkpt>
      <trkpt lat="46.09491" lon="6.6631">
        <ele>657.7</ele>
        <time>2023-08-15T17:18:25Z</time>
      </trkpt>
      <trkpt lat="46.09477" lon="6.66328">
        <ele>657.4</ele>
        <time>2023-08-15T17:18:35Z</time>
      </trkpt>
      <trkpt lat="46.09465" lon="6.6635">
        <ele>656.7</ele>
        <time>2023-08-15T17:18:41Z</time>
      </trkpt>
      <trkpt lat="46.09452" lon="6.66369">
        <ele>656.4</ele>
        <time>2023-08-15T17:18:48Z</time>
      </trkpt>
      <trkpt lat="46.09446" lon="6.66395">
        <ele>657.1</ele>
        <time>2023-08-15T17:18:58Z</time>
      </trkpt>
      <trkpt lat="46.09437" lon="6.66417">
        <ele>657.3</ele>
        <time>2023-08-15T17:19:06Z</time>
      </trkpt>
      <trkpt lat="46.09418" lon="6.66427">
        <ele>657.5</ele>
        <time>2023-08-15T17:19:14Z</time>
      </trkpt>
      <trkpt lat="46.09402" lon="6.6644">
        <ele>657.7</ele>
        <time>2023-08-15T17:19:21Z</time>
      </trkpt>
      <trkpt lat="46.09396" lon="6.66444">
        <ele>657.7</ele>
        <time>2023-08-15T17:19:24Z</time>
      </trkpt>
      <trkpt lat="46.09387" lon="6.6645">
        <ele>657.7</ele>
        <time>2023-08-15T17:19:27Z</time>
      </trkpt>
      <trkpt lat="46.0937" lon="6.66463">
        <ele>658.1</ele>
        <time>2023-08-15T17:19:34Z</time>
      </trkpt>
      <trkpt lat="46.09365" lon="6.66465">
        <ele>658.2</ele>
        <time>2023-08-15T17:19:35Z</time>
      </trkpt>
      <trkpt lat="46.0935" lon="6.66486">
        <ele>658.7</ele>
        <time>2023-08-15T17:19:43Z</time>
      </trkpt>
      <trkpt lat="46.09332" lon="6.66494">
        <ele>658.8</ele>
        <time>2023-08-15T17:19:50Z</time>
      </trkpt>
      <trkpt lat="46.09313" lon="6.665">
        <ele>658.6</ele>
        <time>2023-08-15T17:19:57Z</time>
      </trkpt>
      <trkpt lat="46.09295" lon="6.66507">
        <ele>658.6</ele>
        <time>2023-08-15T17:20:04Z</time>
      </trkpt>
      <trkpt lat="46.09292" lon="6.66514">
        <ele>658.7</ele>
        <time>2023-08-15T17:20:05Z</time>
      </trkpt>
      <trkpt lat="46.09286" lon="6.66545">
        <ele>659.2</ele>
        <time>2023-08-15T17:20:11Z</time>
      </trkpt>
      <trkpt lat="46.09283" lon="6.66576">
        <ele>659.4</ele>
        <time>2023-08-15T17:20:18Z</time>
      </trkpt>
      <trkpt lat="46.0928" lon="6.66582">
        <ele>659.4</ele>
        <time>2023-08-15T17:20:19Z</time>
      </trkpt>
      <trkpt lat="46.09263" lon="6.66598">
        <ele>659.5</ele>
        <time>2023-08-15T17:20:28Z</time>
      </trkpt>
      <trkpt lat="46.09266" lon="6.66623">
        <ele>659.4</ele>
        <time>2023-08-15T17:20:34Z</time>
      </trkpt>
      <trkpt lat="46.09276" lon="6.66644">
        <ele>659.5</ele>
        <time>2023-08-15T17:20:40Z</time>
      </trkpt>
      <trkpt lat="46.09278" lon="6.66673">
        <ele>659.9</ele>
        <time>2023-08-15T17:20:47Z</time>
      </trkpt>
      <trkpt lat="46.09278" lon="6.667">
        <ele>660.2</ele>
        <time>2023-08-15T17:20:54Z</time>
      </trkpt>
      <trkpt lat="46.09264" lon="6.66714">
        <ele>660.4</ele>
        <time>2023-08-15T17:21:04Z</time>
      </trkpt>
      <trkpt lat="46.09246" lon="6.66724">
        <ele>660.4</ele>
        <time>2023-08-15T17:21:16Z</time>
      </trkpt>
      <trkpt lat="46.0923" lon="6.6674">
        <ele>660.1</ele>
        <time>2023-08-15T17:21:22Z</time>
      </trkpt>
      <trkpt lat="46.09214" lon="6.66756">
        <ele>660</ele>
        <time>2023-08-15T17:21:29Z</time>
      </trkpt>
      <trkpt lat="46.09196" lon="6.66765">
        <ele>660.3</ele>
        <time>2023-08-15T17:21:35Z</time>
      </trkpt>
      <trkpt lat="46.09178" lon="6.66777">
        <ele>660.6</ele>
        <time>2023-08-15T17:21:41Z</time>
      </trkpt>
      <trkpt lat="46.09163" lon="6.66792">
        <ele>660.6</ele>
        <time>2023-08-15T17:21:46Z</time>
      </trkpt>
      <trkpt lat="46.09149" lon="6.66809">
        <ele>660.8</ele>
        <time>2023-08-15T17:21:52Z</time>
      </trkpt>
      <trkpt lat="46.09137" lon="6.66829">
        <ele>661.2</ele>
        <time>2023-08-15T17:21:58Z</time>
      </trkpt>
      <trkpt lat="46.09124" lon="6.66849">
        <ele>661.6</ele>
        <time>2023-08-15T17:22:03Z</time>
      </trkpt>
      <trkpt lat="46.09111" lon="6.66868">
        <ele>661.7</ele>
        <time>2023-08-15T17:22:08Z</time>
      </trkpt>
      <trkpt lat="46.09097" lon="6.6689">
        <ele>661.9</ele>
        <time>2023-08-15T17:22:14Z</time>
      </trkpt>
      <trkpt lat="46.09083" lon="6.6691">
        <ele>662.2</ele>
        <time>2023-08-15T17:22:21Z</time>
      </trkpt>
      <trkpt lat="46.09073" lon="6.66931">
        <ele>662.4</ele>
        <time>2023-08-15T17:22:27Z</time>
      </trkpt>
      <trkpt lat="46.09066" lon="6.66956">
        <ele>662.6</ele>
        <time>2023-08-15T17:22:33Z</time>
      </trkpt>
      <trkpt lat="46.09062" lon="6.66985">
        <ele>662.7</ele>
        <time>2023-08-15T17:22:40Z</time>
      </trkpt>
      <trkpt lat="46.09059" lon="6.67013">
        <ele>662.7</ele>
        <time>2023-08-15T17:22:47Z</time>
      </trkpt>
      <trkpt lat="46.09053" lon="6.67038">
        <ele>662.7</ele>
        <time>2023-08-15T17:22:55Z</time>
      </trkpt>
      <trkpt lat="46.09045" lon="6.67066">
        <ele>662.8</ele>
        <time>2023-08-15T17:23:02Z</time>
      </trkpt>
      <trkpt lat="46.09038" lon="6.67094">
        <ele>662.9</ele>
        <time>2023-08-15T17:23:08Z</time>
      </trkpt>
      <trkpt lat="46.09029" lon="6.67118">
        <ele>663.1</ele>
        <time>2023-08-15T17:23:15Z</time>
      </trkpt>
      <trkpt lat="46.09028" lon="6.67146">
        <ele>663.1</ele>
        <time>2023-08-15T17:23:21Z</time>
      </trkpt>
      <trkpt lat="46.09028" lon="6.67175">
        <ele>663.2</ele>
        <time>2023-08-15T17:23:27Z</time>
      </trkpt>
      <trkpt lat="46.09024" lon="6.67204">
        <ele>663.2</ele>
        <time>2023-08-15T17:23:33Z</time>
      </trkpt>
      <trkpt lat="46.09019" lon="6.67232">
        <ele>663.2</ele>
        <time>2023-08-15T17:23:39Z</time>
      </trkpt>
      <trkpt lat="46.09008" lon="6.67256">
        <ele>663.3</ele>
        <time>2023-08-15T17:23:46Z</time>
      </trkpt>
      <trkpt lat="46.08996" lon="6.67277">
        <ele>663.5</ele>
        <time>2023-08-15T17:23:53Z</time>
      </trkpt>
      <trkpt lat="46.08989" lon="6.67304">
        <ele>664.3</ele>
        <time>2023-08-15T17:24:00Z</time>
      </trkpt>
      <trkpt lat="46.08987" lon="6.67305">
        <ele>664.3</ele>
        <time>2023-08-15T17:24:01Z</time>
      </trkpt>
      <trkpt lat="46.0897" lon="6.67291">
        <ele>664.3</ele>
        <time>2023-08-15T17:24:09Z</time>
      </trkpt>
      <trkpt lat="46.08952" lon="6.67282">
        <ele>664.3</ele>
        <time>2023-08-15T17:24:15Z</time>
      </trkpt>
      <trkpt lat="46.08937" lon="6.67278">
        <ele>664.1</ele>
        <time>2023-08-15T17:24:21Z</time>
      </trkpt>
      <trkpt lat="46.08921" lon="6.67291">
        <ele>663.2</ele>
        <time>2023-08-15T17:24:29Z</time>
      </trkpt>
      <trkpt lat="46.08905" lon="6.67308">
        <ele>662.8</ele>
        <time>2023-08-15T17:24:33Z</time>
      </trkpt>
      <trkpt lat="46.08887" lon="6.67325">
        <ele>663</ele>
        <time>2023-08-15T17:24:38Z</time>
      </trkpt>
      <trkpt lat="46.08872" lon="6.6734">
        <ele>663.4</ele>
        <time>2023-08-15T17:24:44Z</time>
      </trkpt>
      <trkpt lat="46.08862" lon="6.67361">
        <ele>663.7</ele>
        <time>2023-08-15T17:24:50Z</time>
      </trkpt>
      <trkpt lat="46.08857" lon="6.67389">
        <ele>664</ele>
        <time>2023-08-15T17:24:57Z</time>
      </trkpt>
      <trkpt lat="46.08858" lon="6.67396">
        <ele>664.1</ele>
        <time>2023-08-15T17:25:01Z</time>
      </trkpt>
      <trkpt lat="46.08856" lon="6.67389">
        <ele>664.3</ele>
        <time>2023-08-15T17:25:06Z</time>
      </trkpt>
      <trkpt lat="46.08838" lon="6.67401">
        <ele>665</ele>
        <time>2023-08-15T17:25:13Z</time>
      </trkpt>
      <trkpt lat="46.08835" lon="6.67401">
        <ele>665.1</ele>
        <time>2023-08-15T17:25:55Z</time>
      </trkpt>
      <trkpt lat="46.08854" lon="6.67394">
        <ele>665.9</ele>
        <time>2023-08-15T17:26:03Z</time>
      </trkpt>
      <trkpt lat="46.08862" lon="6.67386">
        <ele>666.1</ele>
        <time>2023-08-15T17:26:07Z</time>
      </trkpt>
      <trkpt lat="46.08861" lon="6.6741">
        <ele>666.4</ele>
        <time>2023-08-15T17:26:17Z</time>
      </trkpt>
      <trkpt lat="46.08853" lon="6.67435">
        <ele>666.6</ele>
        <time>2023-08-15T17:26:24Z</time>
      </trkpt>
      <trkpt lat="46.08848" lon="6.67463">
        <ele>666.7</ele>
        <time>2023-08-15T17:26:31Z</time>
      </trkpt>
      <trkpt lat="46.08845" lon="6.67492">
        <ele>666.9</ele>
        <time>2023-08-15T17:26:38Z</time>
      </trkpt>
      <trkpt lat="46.0884" lon="6.67518">
        <ele>667.1</ele>
        <time>2023-08-15T17:26:44Z</time>
      </trkpt>
      <trkpt lat="46.08834" lon="6.67544">
        <ele>667.2</ele>
        <time>2023-08-15T17:26:50Z</time>
      </trkpt>
      <trkpt lat="46.0883" lon="6.67571">
        <ele>667.3</ele>
        <time>2023-08-15T17:26:57Z</time>
      </trkpt>
      <trkpt lat="46.08827" lon="6.67599">
        <ele>667.5</ele>
        <time>2023-08-15T17:27:04Z</time>
      </trkpt>
      <trkpt lat="46.08824" lon="6.67627">
        <ele>667.7</ele>
        <time>2023-08-15T17:27:11Z</time>
      </trkpt>
      <trkpt lat="46.0882" lon="6.67655">
        <ele>667.9</ele>
        <time>2023-08-15T17:27:18Z</time>
      </trkpt>
      <trkpt lat="46.08817" lon="6.67684">
        <ele>668</ele>
        <time>2023-08-15T17:27:25Z</time>
      </trkpt>
      <trkpt lat="46.08813" lon="6.6771">
        <ele>668</ele>
        <time>2023-08-15T17:27:31Z</time>
      </trkpt>
      <trkpt lat="46.08811" lon="6.67738">
        <ele>668.1</ele>
        <time>2023-08-15T17:27:38Z</time>
      </trkpt>
      <trkpt lat="46.08809" lon="6.67765">
        <ele>668.2</ele>
        <time>2023-08-15T17:27:45Z</time>
      </trkpt>
      <trkpt lat="46.08805" lon="6.67792">
        <ele>668.3</ele>
        <time>2023-08-15T17:27:52Z</time>
      </trkpt>
      <trkpt lat="46.08803" lon="6.67819">
        <ele>668.6</ele>
        <time>2023-08-15T17:27:59Z</time>
      </trkpt>
      <trkpt lat="46.08796" lon="6.67847">
        <ele>669</ele>
        <time>2023-08-15T17:28:06Z</time>
      </trkpt>
      <trkpt lat="46.08789" lon="6.67871">
        <ele>670.3</ele>
        <time>2023-08-15T17:28:12Z</time>
      </trkpt>
      <trkpt lat="46.08778" lon="6.67893">
        <ele>671.4</ele>
        <time>2023-08-15T17:28:19Z</time>
      </trkpt>
      <trkpt lat="46.08757" lon="6.67893">
        <ele>671.3</ele>
        <time>2023-08-15T17:28:26Z</time>
      </trkpt>
      <trkpt lat="46.08738" lon="6.67898">
        <ele>671.1</ele>
        <time>2023-08-15T17:28:33Z</time>
      </trkpt>
      <trkpt lat="46.08718" lon="6.67895">
        <ele>670.9</ele>
        <time>2023-08-15T17:28:41Z</time>
      </trkpt>
      <trkpt lat="46.08698" lon="6.67901">
        <ele>670.6</ele>
        <time>2023-08-15T17:28:48Z</time>
      </trkpt>
      <trkpt lat="46.08678" lon="6.67902">
        <ele>670.4</ele>
        <time>2023-08-15T17:28:54Z</time>
      </trkpt>
      <trkpt lat="46.08658" lon="6.679">
        <ele>670.1</ele>
        <time>2023-08-15T17:29:01Z</time>
      </trkpt>
      <trkpt lat="46.08647" lon="6.67898">
        <ele>670</ele>
        <time>2023-08-15T17:29:05Z</time>
      </trkpt>
    </trkseg>
  </trk>
</gpx>